createdAt,value
2022-08-26T00:00:16.763Z,99.99
2022-08-26T00:01:16.258Z,99.99
2022-08-26T00:02:19.357Z,99.99
2022-08-26T00:03:15.999Z,99.99
2022-08-26T00:04:16.399Z,99.99
2022-08-26T00:05:16.240Z,99.99
2022-08-26T00:06:16.236Z,99.99
2022-08-26T00:07:15.972Z,99.99
2022-08-26T00:08:16.228Z,99.99
2022-08-26T00:09:18.597Z,99.99
2022-08-26T00:10:16.898Z,99.99
2022-08-26T00:11:16.207Z,99.99
2022-08-26T00:12:16.204Z,99.99
2022-08-26T00:13:16.200Z,99.99
2022-08-26T00:14:16.265Z,99.99
2022-08-26T00:15:16.185Z,99.99
2022-08-26T00:16:16.013Z,99.99
2022-08-26T00:17:15.920Z,99.99
2022-08-26T00:18:24.816Z,99.99
2022-08-26T00:19:16.886Z,99.99
2022-08-26T00:20:16.379Z,99.99
2022-08-26T00:21:16.157Z,99.99
2022-08-26T00:22:23.722Z,99.99
2022-08-26T00:23:15.892Z,99.99
2022-08-26T00:24:15.886Z,99.99
2022-08-26T00:25:19.169Z,99.99
2022-08-26T00:26:16.134Z,99.99
2022-08-26T00:27:16.156Z,99.99
2022-08-26T00:28:16.249Z,99.99
2022-08-26T00:29:17.220Z,99.99
2022-08-26T00:30:17.292Z,99.99
2022-08-26T00:31:16.201Z,99.99
2022-08-26T00:32:16.793Z,99.99
2022-08-26T00:33:15.850Z,99.99
2022-08-26T00:34:16.298Z,99.99
2022-08-26T00:35:16.084Z,99.99
2022-08-26T00:36:22.265Z,99.99
2022-08-26T00:37:18.480Z,99.99
2022-08-26T00:38:16.064Z,99.99
2022-08-26T00:39:16.795Z,99.99
2022-08-26T00:40:15.879Z,99.99
2022-08-26T00:41:17.061Z,99.99
2022-08-26T00:42:15.785Z,99.99
2022-08-26T00:43:17.427Z,99.99
2022-08-26T00:44:16.031Z,99.99
2022-08-26T00:45:15.772Z,99.99
2022-08-26T00:46:15.929Z,99.99
2022-08-26T00:47:19.603Z,99.99
2022-08-26T00:48:15.755Z,99.99
2022-08-26T00:49:16.009Z,99.99
2022-08-26T00:50:17.855Z,99.99
2022-08-26T00:51:15.737Z,99.99
2022-08-26T00:52:17.802Z,99.99
2022-08-26T00:53:15.986Z,99.99
2022-08-26T00:54:16.005Z,99.99
2022-08-26T00:55:22.298Z,99.99
2022-08-26T00:56:15.966Z,99.99
2022-08-26T00:57:18.919Z,99.99
2022-08-26T00:58:15.697Z,99.99
2022-08-26T00:59:15.720Z,99.99
2022-08-26T01:00:15.942Z,99.99
2022-08-26T01:01:15.816Z,99.99
2022-08-26T01:02:23.202Z,99.99
2022-08-26T01:03:15.926Z,99.99
2022-08-26T01:04:15.921Z,99.99
2022-08-26T01:05:15.664Z,99.99
2022-08-26T01:06:15.907Z,99.99
2022-08-26T01:07:16.024Z,99.99
2022-08-26T01:08:15.644Z,99.99
2022-08-26T01:09:15.901Z,99.99
2022-08-26T01:10:15.667Z,99.99
2022-08-26T01:11:15.882Z,99.99
2022-08-26T01:12:16.154Z,99.99
2022-08-26T01:13:15.871Z,99.99
2022-08-26T01:14:15.871Z,99.99
2022-08-26T01:15:15.900Z,99.99
2022-08-26T01:16:15.723Z,99.99
2022-08-26T01:17:15.845Z,99.99
2022-08-26T01:18:15.844Z,99.99
2022-08-26T01:19:16.327Z,99.99
2022-08-26T01:20:16.155Z,99.99
2022-08-26T01:21:15.896Z,99.99
2022-08-26T01:22:15.820Z,99.99
2022-08-26T01:23:15.825Z,99.99
2022-08-26T01:24:16.446Z,99.99
2022-08-26T01:25:15.798Z,99.99
2022-08-26T01:26:22.193Z,99.99
2022-08-26T01:27:15.789Z,99.99
2022-08-26T01:28:16.815Z,99.99
2022-08-26T01:29:15.524Z,99.99
2022-08-26T01:30:15.990Z,99.99
2022-08-26T01:31:17.175Z,99.99
2022-08-26T01:32:15.505Z,99.99
2022-08-26T01:33:15.794Z,99.99
2022-08-26T01:34:15.498Z,99.99
2022-08-26T01:35:15.740Z,99.99
2022-08-26T01:36:15.487Z,99.99
2022-08-26T01:37:18.387Z,99.99
2022-08-26T01:38:15.471Z,99.99
2022-08-26T01:39:15.465Z,99.99
2022-08-26T01:40:16.765Z,99.99
2022-08-26T01:41:27.112Z,99.99
2022-08-26T01:42:15.452Z,99.99
2022-08-26T01:43:15.697Z,99.99
2022-08-26T01:44:15.693Z,99.99
2022-08-26T01:45:15.699Z,99.99
2022-08-26T01:46:15.525Z,99.99
2022-08-26T01:47:15.673Z,99.99
2022-08-26T01:48:15.671Z,99.99
2022-08-26T01:49:15.987Z,99.99
2022-08-26T01:50:27.578Z,99.99
2022-08-26T01:51:17.407Z,99.99
2022-08-26T01:52:15.389Z,99.99
2022-08-26T01:53:15.636Z,99.99
2022-08-26T01:54:16.254Z,99.99
2022-08-26T01:55:29.293Z,99.99
2022-08-26T01:56:15.636Z,99.99
2022-08-26T01:57:15.620Z,99.99
2022-08-26T01:58:15.613Z,99.99
2022-08-26T01:59:15.820Z,99.99
2022-08-26T02:00:18.619Z,99.99
2022-08-26T02:01:15.743Z,99.99
2022-08-26T02:02:15.587Z,99.99
2022-08-26T02:03:15.633Z,99.99
2022-08-26T02:04:15.679Z,99.99
2022-08-26T02:05:15.380Z,99.99
2022-08-26T02:06:15.624Z,99.99
2022-08-26T02:07:15.557Z,99.99
2022-08-26T02:08:16.216Z,99.99
2022-08-26T02:09:17.427Z,99.99
2022-08-26T02:10:15.829Z,99.99
2022-08-26T02:11:16.758Z,99.99
2022-08-26T02:12:16.648Z,99.99
2022-08-26T02:13:16.068Z,99.99
2022-08-26T02:14:15.258Z,99.99
2022-08-26T02:15:15.260Z,99.99
2022-08-26T02:16:15.671Z,99.99
2022-08-26T02:17:15.498Z,99.99
2022-08-26T02:18:16.608Z,99.99
2022-08-26T02:19:19.604Z,99.99
2022-08-26T02:20:17.431Z,99.99
2022-08-26T02:21:15.478Z,99.99
2022-08-26T02:22:15.210Z,99.99
2022-08-26T02:23:15.564Z,99.99
2022-08-26T02:24:15.454Z,99.99
2022-08-26T02:25:15.471Z,99.99
2022-08-26T02:26:20.475Z,99.99
2022-08-26T02:27:15.182Z,99.99
2022-08-26T02:28:15.430Z,99.99
2022-08-26T02:29:17.247Z,99.99
2022-08-26T02:30:15.185Z,99.99
2022-08-26T02:31:15.543Z,99.99
2022-08-26T02:32:20.818Z,99.99
2022-08-26T02:33:15.400Z,99.99
2022-08-26T02:34:17.488Z,99.99
2022-08-26T02:35:18.277Z,99.99
2022-08-26T02:36:15.952Z,99.99
2022-08-26T02:37:15.383Z,99.99
2022-08-26T02:38:15.372Z,99.99
2022-08-26T02:39:22.196Z,99.99
2022-08-26T02:40:17.000Z,99.99
2022-08-26T02:41:15.095Z,99.99
2022-08-26T02:42:15.807Z,99.99
2022-08-26T02:43:15.084Z,99.99
2022-08-26T02:44:16.063Z,99.99
2022-08-26T02:45:16.366Z,99.99
2022-08-26T02:46:27.756Z,99.99
2022-08-26T02:47:15.526Z,99.99
2022-08-26T02:48:15.052Z,99.99
2022-08-26T02:49:16.958Z,99.99
2022-08-26T02:50:15.635Z,99.99
2022-08-26T02:51:15.506Z,99.99
2022-08-26T02:52:15.071Z,99.99
2022-08-26T02:53:15.429Z,99.99
2022-08-26T02:54:15.763Z,99.99
2022-08-26T02:55:15.265Z,99.99
2022-08-26T02:56:15.393Z,99.99
2022-08-26T02:57:15.251Z,99.99
2022-08-26T02:58:15.252Z,99.99
2022-08-26T02:59:15.241Z,99.99
2022-08-26T03:00:14.981Z,99.99
2022-08-26T03:01:15.826Z,99.99
2022-08-26T03:02:15.612Z,99.99
2022-08-26T03:03:15.213Z,99.99
2022-08-26T03:04:16.273Z,99.99
2022-08-26T03:05:14.952Z,99.99
2022-08-26T03:06:15.197Z,99.99
2022-08-26T03:07:14.935Z,99.99
2022-08-26T03:08:15.185Z,99.82
2022-08-26T03:09:21.235Z,99.99
2022-08-26T03:10:15.173Z,99.99
2022-08-26T03:11:16.075Z,99.63
2022-08-26T03:12:16.397Z,99.24
2022-08-26T03:13:15.236Z,99.15
2022-08-26T03:14:15.206Z,99.63
2022-08-26T03:15:20.170Z,99.82
2022-08-26T03:16:15.090Z,99.82
2022-08-26T03:17:15.133Z,99.34
2022-08-26T03:18:15.124Z,99.24
2022-08-26T03:19:15.117Z,99.24
2022-08-26T03:20:17.858Z,99.34
2022-08-26T03:21:15.311Z,99.24
2022-08-26T03:22:17.034Z,99.24
2022-08-26T03:23:14.844Z,99.34
2022-08-26T03:24:15.113Z,98.76
2022-08-26T03:25:15.083Z,99.48
2022-08-26T03:26:14.888Z,99.48
2022-08-26T03:27:15.075Z,99.15
2022-08-26T03:28:15.328Z,99
2022-08-26T03:29:15.058Z,98.81
2022-08-26T03:30:17.127Z,98.62
2022-08-26T03:31:15.322Z,98.86
2022-08-26T03:32:15.038Z,98.81
2022-08-26T03:33:14.777Z,98.47
2022-08-26T03:50:15.578Z,95.98
2022-08-26T03:51:17.999Z,96.22
2022-08-26T03:52:15.305Z,96.03
2022-08-26T03:53:15.910Z,95.98
2022-08-26T03:54:15.287Z,95.94
2022-08-26T03:55:15.967Z,96.32
2022-08-26T03:56:15.528Z,96.32
2022-08-26T03:57:19.070Z,95.84
2022-08-26T03:58:15.510Z,96.22
2022-08-26T03:59:15.517Z,95.36
2022-08-26T04:00:18.350Z,95.75
2022-08-26T04:01:19.018Z,95.17
2022-08-26T04:02:16.186Z,95.17
2022-08-26T04:03:20.659Z,94.31
2022-08-26T04:04:18.099Z,94.21
2022-08-26T04:05:15.790Z,94.21
2022-08-26T04:06:15.193Z,93.93
2022-08-26T04:07:15.441Z,93.45
2022-08-26T04:08:15.431Z,92.97
2022-08-26T04:09:15.279Z,93.16
2022-08-26T04:10:15.437Z,92.87
2022-08-26T04:11:15.535Z,92.4
2022-08-26T04:12:15.403Z,92.01
2022-08-26T04:13:15.400Z,91.92
2022-08-26T04:14:17.753Z,91.72
2022-08-26T04:15:16.374Z,91.82
2022-08-26T04:16:16.361Z,91.34
2022-08-26T04:17:15.115Z,91.25
2022-08-26T04:18:15.363Z,90.96
2022-08-26T04:19:15.101Z,91.05
2022-08-26T04:20:18.450Z,90.39
2022-08-26T04:21:17.380Z,90.48
2022-08-26T04:22:15.081Z,90.29
2022-08-26T04:23:15.073Z,90.39
2022-08-26T04:24:15.325Z,89.9
2022-08-26T04:25:15.060Z,89.62
2022-08-26T04:26:15.053Z,89.62
2022-08-26T04:27:15.485Z,89.66
2022-08-26T04:28:15.588Z,89.81
2022-08-26T04:29:15.292Z,89.04
2022-08-26T04:30:15.552Z,89.18
2022-08-26T04:31:15.848Z,89.09
2022-08-26T04:32:15.338Z,89.37
2022-08-26T04:33:15.910Z,89.37
2022-08-26T04:34:16.599Z,89.37
2022-08-26T04:35:14.999Z,89.18
2022-08-26T04:36:15.250Z,89.18
2022-08-26T04:37:14.990Z,89.47
2022-08-26T04:38:15.257Z,89.18
2022-08-26T04:39:15.754Z,89.09
2022-08-26T04:40:15.341Z,89.09
2022-08-26T04:41:19.013Z,89.09
2022-08-26T04:42:15.859Z,89.18
2022-08-26T04:43:15.200Z,88.9
2022-08-26T04:44:15.197Z,88.7
2022-08-26T04:45:15.193Z,88.51
2022-08-26T04:46:16.102Z,88.8
2022-08-26T04:47:15.173Z,88.61
2022-08-26T04:48:19.210Z,88.51
2022-08-26T04:49:14.914Z,88.8
2022-08-26T04:50:15.159Z,88.61
2022-08-26T04:51:15.150Z,88.7
2022-08-26T04:52:15.148Z,88.7
2022-08-26T04:53:15.504Z,88.8
2022-08-26T04:54:14.882Z,88.61
2022-08-26T04:55:16.419Z,88.61
2022-08-26T04:56:14.866Z,88.61
2022-08-26T04:57:15.223Z,88.61
2022-08-26T04:58:15.012Z,88.46
2022-08-26T04:59:19.135Z,88.61
2022-08-26T05:00:15.098Z,88.65
2022-08-26T05:01:14.921Z,88.56
2022-08-26T05:02:15.088Z,88.84
2022-08-26T05:03:15.079Z,88.84
2022-08-26T05:04:18.873Z,88.94
2022-08-26T05:05:15.065Z,89.23
2022-08-26T05:06:15.059Z,89.13
2022-08-26T05:07:15.053Z,89.23
2022-08-26T05:08:14.796Z,89.42
2022-08-26T05:09:17.557Z,90
2022-08-26T05:10:17.241Z,90.09
2022-08-26T05:11:14.778Z,90
2022-08-26T05:12:15.417Z,90
2022-08-26T05:13:17.726Z,89.61
2022-08-26T05:14:15.073Z,89.9
2022-08-26T05:15:15.007Z,90
2022-08-26T05:16:14.832Z,90
2022-08-26T05:17:17.328Z,90.28
2022-08-26T05:18:15.003Z,90
2022-08-26T05:19:14.735Z,90.71
2022-08-26T05:20:14.726Z,90.38
2022-08-26T05:21:14.719Z,90.47
2022-08-26T05:22:15.303Z,90.42
2022-08-26T05:23:15.371Z,90.42
2022-08-26T05:24:14.964Z,90.33
2022-08-26T05:25:14.955Z,90.42
2022-08-26T05:26:22.867Z,91.09
2022-08-26T05:27:14.763Z,91.09
2022-08-26T05:28:14.934Z,91.48
2022-08-26T05:29:14.671Z,91.19
2022-08-26T05:30:14.670Z,91.19
2022-08-26T05:31:17.857Z,91.28
2022-08-26T05:32:14.912Z,91.42
2022-08-26T05:33:14.907Z,92.19
2022-08-26T05:34:14.898Z,92
2022-08-26T05:35:14.896Z,92.1
2022-08-26T05:36:15.730Z,92.48
2022-08-26T05:37:16.152Z,93.06
2022-08-26T05:38:15.169Z,92.86
2022-08-26T05:39:14.873Z,93.06
2022-08-26T05:40:14.983Z,93.73
2022-08-26T05:41:17.707Z,93.92
2022-08-26T05:42:15.129Z,93.92
2022-08-26T05:43:14.595Z,94.59
2022-08-26T05:44:16.415Z,94.21
2022-08-26T05:45:14.842Z,94.79
2022-08-26T05:46:15.109Z,94.69
2022-08-26T05:47:14.829Z,94.49
2022-08-26T05:48:14.824Z,95.17
2022-08-26T05:49:15.883Z,95.31
2022-08-26T05:50:14.813Z,95.21
2022-08-26T05:51:15.013Z,95.89
2022-08-26T05:52:15.140Z,95.89
2022-08-26T05:53:16.315Z,95.5
2022-08-26T05:54:14.791Z,96.08
2022-08-26T05:55:15.652Z,96.37
2022-08-26T05:56:14.540Z,96.47
2022-08-26T05:57:14.791Z,95.98
2022-08-26T05:58:14.771Z,96.47
2022-08-26T05:59:17.001Z,96.47
2022-08-26T06:00:14.776Z,96.47
2022-08-26T06:01:14.593Z,96.56
2022-08-26T06:02:16.063Z,97.14
2022-08-26T06:03:14.903Z,97.19
2022-08-26T06:04:14.745Z,97.28
2022-08-26T06:05:14.737Z,97.47
2022-08-26T06:06:14.735Z,98.14
2022-08-26T06:07:15.948Z,97.86
2022-08-26T06:08:15.365Z,97.96
2022-08-26T06:09:14.463Z,98.05
2022-08-26T06:10:34.137Z,98.34
2022-08-26T06:11:20.962Z,99.01
2022-08-26T06:12:17.505Z,99.49
2022-08-26T06:13:14.810Z,99.78
2022-08-26T06:14:14.438Z,99.99
2022-08-26T06:15:17.709Z,99.99
2022-08-26T06:16:15.105Z,99.99
2022-08-26T06:17:15.402Z,99.99
2022-08-26T06:18:14.430Z,99.99
2022-08-26T06:19:14.675Z,99.99
2022-08-26T06:20:14.664Z,99.99
2022-08-26T06:21:14.663Z,99.99
2022-08-26T06:22:16.776Z,99.99
2022-08-26T06:23:14.396Z,99.99
2022-08-26T06:24:14.649Z,99.99
2022-08-26T06:25:14.645Z,99.99
2022-08-26T06:26:14.953Z,99.99
2022-08-26T06:27:15.433Z,99.99
2022-08-26T06:28:16.020Z,99.99
2022-08-26T06:29:25.999Z,99.99
2022-08-26T06:30:14.617Z,99.99
2022-08-26T06:31:14.539Z,99.99
2022-08-26T06:32:14.358Z,99.99
2022-08-26T06:33:14.354Z,99.99
2022-08-26T06:34:14.604Z,99.99
2022-08-26T06:35:14.611Z,99.99
2022-08-26T06:36:18.582Z,99.99
2022-08-26T06:37:14.583Z,99.99
2022-08-26T06:38:14.451Z,99.99
2022-08-26T06:39:14.325Z,99.99
2022-08-26T06:40:14.412Z,99.99
2022-08-26T06:41:14.318Z,99.99
2022-08-26T06:42:14.962Z,99.99
2022-08-26T06:43:14.567Z,99.99
2022-08-26T06:44:14.314Z,99.99
2022-08-26T06:45:14.303Z,99.99
2022-08-26T06:46:14.601Z,99.99
2022-08-26T06:47:14.551Z,99.99
2022-08-26T06:48:14.825Z,99.99
2022-08-26T06:49:14.543Z,99.99
2022-08-26T06:50:14.542Z,99.99
2022-08-26T06:51:14.280Z,99.99
2022-08-26T06:52:14.820Z,99.99
2022-08-26T06:53:15.127Z,99.99
2022-08-26T06:54:14.271Z,99.99
2022-08-26T06:55:14.524Z,99.99
2022-08-26T06:56:14.637Z,99.99
2022-08-26T06:57:14.520Z,99.99
2022-08-26T06:58:15.548Z,99.99
2022-08-26T06:59:14.685Z,99.99
2022-08-26T07:00:14.756Z,99.99
2022-08-26T07:01:14.591Z,99.99
2022-08-26T07:02:15.852Z,99.99
2022-08-26T07:03:15.238Z,99.99
2022-08-26T07:04:14.245Z,99.99
2022-08-26T07:05:14.508Z,99.99
2022-08-26T07:06:14.495Z,99.99
2022-08-26T07:07:14.502Z,99.99
2022-08-26T07:08:14.352Z,99.99
2022-08-26T07:09:16.252Z,99.99
2022-08-26T07:10:14.483Z,99.99
2022-08-26T07:11:14.470Z,99.99
2022-08-26T07:12:15.649Z,99.99
2022-08-26T07:13:14.228Z,93.98
2022-08-26T07:14:14.482Z,89.23
2022-08-26T07:15:14.640Z,85.58
2022-08-26T07:16:15.747Z,81.39
2022-08-26T07:17:16.764Z,77.55
2022-08-26T07:18:14.475Z,75.15
2022-08-26T07:19:14.479Z,74.8
2022-08-26T07:20:14.219Z,73.63
2022-08-26T07:21:14.435Z,73.15
2022-08-26T07:22:14.484Z,73.11
2022-08-26T07:23:14.502Z,72.82
2022-08-26T07:24:14.224Z,72.98
2022-08-26T07:25:14.467Z,72.85
2022-08-26T07:26:14.509Z,73.2
2022-08-26T07:27:14.233Z,74.71
2022-08-26T07:28:14.229Z,73.65
2022-08-26T07:29:14.485Z,72.39
2022-08-26T07:30:17.041Z,71.8
2022-08-26T07:31:14.596Z,71.8
2022-08-26T07:32:14.229Z,71.8
2022-08-26T07:33:14.485Z,72.45
2022-08-26T07:34:14.231Z,73.71
2022-08-26T07:35:14.495Z,74.74
2022-08-26T07:36:14.487Z,75.32
2022-08-26T07:37:14.492Z,75.57
2022-08-26T07:38:15.325Z,76.54
2022-08-26T07:39:15.209Z,77.09
2022-08-26T07:40:14.599Z,78.15
2022-08-26T07:41:14.491Z,78.41
2022-08-26T07:42:14.233Z,79.47
2022-08-26T07:43:14.633Z,80.24
2022-08-26T07:44:14.232Z,81.3
2022-08-26T07:45:14.238Z,80.79
2022-08-26T07:46:20.715Z,82.23
2022-08-26T07:47:27.638Z,83.69
2022-08-26T07:48:14.491Z,84.08
2022-08-26T07:49:14.746Z,83.4
2022-08-26T07:50:14.490Z,81.75
2022-08-26T07:51:14.490Z,81.95
2022-08-26T07:52:14.998Z,81.75
2022-08-26T07:53:17.986Z,83.2
2022-08-26T07:54:15.379Z,85.33
2022-08-26T07:55:14.492Z,86.4
2022-08-26T07:56:14.490Z,86.3
2022-08-26T07:57:14.492Z,84.66
2022-08-26T07:58:14.241Z,84.36
2022-08-26T07:59:17.191Z,84.21
2022-08-26T08:00:15.277Z,84.79
2022-08-26T08:01:16.129Z,83.92
2022-08-26T08:02:14.336Z,83.63
2022-08-26T08:03:16.526Z,83.15
2022-08-26T08:04:16.016Z,82.12
2022-08-26T08:05:14.684Z,82.12
2022-08-26T08:06:14.245Z,81.54
2022-08-26T08:07:14.252Z,80.47
2022-08-26T08:08:31.612Z,79.41
2022-08-26T08:09:14.241Z,79.22
2022-08-26T08:10:15.155Z,78.92
2022-08-26T08:11:14.507Z,78.74
2022-08-26T08:12:16.701Z,78.25
2022-08-26T08:13:17.038Z,78.64
2022-08-26T08:14:14.503Z,77.67
2022-08-26T08:15:14.851Z,77.86
2022-08-26T08:16:14.859Z,77.67
2022-08-26T08:17:14.237Z,77.44
2022-08-26T08:18:20.433Z,78.11
2022-08-26T08:19:14.526Z,77.63
2022-08-26T08:20:14.505Z,77.82
2022-08-26T08:21:24.388Z,77.82
2022-08-26T08:22:20.425Z,78.11
2022-08-26T08:23:14.250Z,78.11
2022-08-26T08:24:14.255Z,78.21
2022-08-26T08:25:15.526Z,78.59
2022-08-26T08:26:15.650Z,78.99
2022-08-26T08:27:17.209Z,78.99
2022-08-26T08:28:14.252Z,78.99
2022-08-26T08:29:14.617Z,79.7
2022-08-26T08:30:20.774Z,78.64
2022-08-26T08:31:16.108Z,77.96
2022-08-26T08:32:17.580Z,77.86
2022-08-26T08:33:15.547Z,77.7
2022-08-26T08:34:14.257Z,77.42
2022-08-26T08:35:14.515Z,76.54
2022-08-26T08:36:20.996Z,77.7
2022-08-26T08:37:14.512Z,77.22
2022-08-26T08:38:14.789Z,77.42
2022-08-26T08:39:14.512Z,78.54
2022-08-26T08:40:14.353Z,79.02
2022-08-26T08:41:14.262Z,78.89
2022-08-26T08:42:14.517Z,78.79
2022-08-26T08:43:14.520Z,78.21
2022-08-26T08:44:14.595Z,77.63
2022-08-26T08:45:14.517Z,77.73
2022-08-26T08:46:14.447Z,78.11
2022-08-26T08:47:14.350Z,77.09
2022-08-26T08:48:14.543Z,76.89
2022-08-26T08:49:16.370Z,76.89
2022-08-26T08:50:14.263Z,77.32
2022-08-26T08:51:14.564Z,76.74
2022-08-26T08:52:14.523Z,75.42
2022-08-26T08:53:14.322Z,74.84
2022-08-26T08:54:14.524Z,73.86
2022-08-26T08:55:18.678Z,72.89
2022-08-26T08:56:14.524Z,73.58
2022-08-26T08:57:14.543Z,72.89
2022-08-26T08:58:16.196Z,73.38
2022-08-26T08:59:14.272Z,73.67
2022-08-26T09:00:14.278Z,73.8
2022-08-26T09:01:15.130Z,72.93
2022-08-26T09:02:14.628Z,72.93
2022-08-26T09:03:14.278Z,72.45
2022-08-26T09:04:19.571Z,72
2022-08-26T09:05:17.924Z,71.9
2022-08-26T09:06:14.617Z,71.12
2022-08-26T09:07:14.533Z,70.64
2022-08-26T09:08:14.712Z,70.19
2022-08-26T09:09:14.289Z,69.57
2022-08-26T09:10:14.285Z,69.51
2022-08-26T09:11:14.540Z,69.18
2022-08-26T09:12:14.369Z,69.86
2022-08-26T09:13:19.582Z,69.76
2022-08-26T09:14:14.543Z,69.73
2022-08-26T09:15:14.547Z,70.9
2022-08-26T09:16:14.606Z,71.15
2022-08-26T09:17:14.687Z,71.25
2022-08-26T09:18:15.682Z,72.18
2022-08-26T09:19:14.296Z,72.63
2022-08-26T09:20:14.873Z,73.31
2022-08-26T09:21:14.300Z,74.05
2022-08-26T09:22:14.562Z,74.82
2022-08-26T09:23:14.300Z,75.11
2022-08-26T09:24:16.487Z,74.88
2022-08-26T09:25:14.315Z,76.24
2022-08-26T09:26:14.565Z,77.01
2022-08-26T09:27:14.561Z,78.36
2022-08-26T09:28:15.730Z,79.2
2022-08-26T09:29:14.665Z,80.16
2022-08-26T09:30:14.868Z,81.32
2022-08-26T09:31:14.457Z,82.39
2022-08-26T09:32:14.323Z,83.16
2022-08-26T09:33:16.031Z,84.22
2022-08-26T09:34:19.182Z,84.67
2022-08-26T09:35:14.306Z,85.44
2022-08-26T09:36:14.305Z,85.83
2022-08-26T09:37:14.846Z,86.69
2022-08-26T09:38:14.651Z,87.27
2022-08-26T09:39:14.615Z,87.85
2022-08-26T09:40:14.774Z,87.95
2022-08-26T09:41:15.295Z,88.82
2022-08-26T09:42:16.914Z,90.08
2022-08-26T09:43:14.695Z,90.95
2022-08-26T09:44:17.012Z,92.01
2022-08-26T09:45:14.305Z,92.49
2022-08-26T09:46:14.686Z,93.46
2022-08-26T09:47:14.974Z,94.04
2022-08-26T09:48:20.054Z,95.4
2022-08-26T09:49:14.572Z,95.78
2022-08-26T09:50:15.067Z,95.49
2022-08-26T09:51:17.550Z,94.09
2022-08-26T09:52:14.563Z,92.44
2022-08-26T09:53:15.192Z,91.38
2022-08-26T09:54:23.025Z,90.22
2022-08-26T09:55:14.556Z,89.64
2022-08-26T09:56:14.568Z,88.96
2022-08-26T09:57:14.564Z,88.39
2022-08-26T09:58:14.472Z,87.03
2022-08-26T09:59:14.350Z,86.35
2022-08-26T10:00:14.560Z,86.45
2022-08-26T10:01:14.412Z,85.39
2022-08-26T10:02:15.455Z,85.42
2022-08-26T10:03:19.372Z,84.9
2022-08-26T10:04:14.775Z,84.32
2022-08-26T10:05:14.561Z,83.4
2022-08-26T10:06:14.558Z,83.4
2022-08-26T10:07:18.160Z,82.33
2022-08-26T10:08:14.574Z,81.85
2022-08-26T10:09:14.595Z,81.46
2022-08-26T10:10:14.304Z,81.75
2022-08-26T10:11:14.559Z,81.65
2022-08-26T10:12:14.560Z,81.95
2022-08-26T10:13:14.307Z,82.04
2022-08-26T10:14:14.563Z,81.21
2022-08-26T10:15:14.559Z,80.63
2022-08-26T10:16:14.686Z,80.44
2022-08-26T10:17:14.558Z,80.05
2022-08-26T10:18:14.306Z,79.32
2022-08-26T10:19:14.305Z,79.12
2022-08-26T10:20:25.032Z,77.86
2022-08-26T10:21:14.560Z,77.61
2022-08-26T10:22:14.562Z,77.22
2022-08-26T10:23:16.194Z,76.48
2022-08-26T10:24:14.317Z,74.45
2022-08-26T10:25:14.567Z,74.1
2022-08-26T10:26:14.822Z,73.52
2022-08-26T10:27:14.312Z,71.48
2022-08-26T10:28:14.569Z,70.54
2022-08-26T10:29:14.636Z,70.64
2022-08-26T10:30:14.614Z,69.8
2022-08-26T10:31:14.313Z,69.51
2022-08-26T10:32:16.399Z,69.51
2022-08-26T10:33:14.584Z,68.83
2022-08-26T10:34:16.340Z,68.63
2022-08-26T10:35:14.320Z,67.96
2022-08-26T10:36:20.213Z,67.31
2022-08-26T10:37:18.292Z,66.4
2022-08-26T10:38:15.346Z,66.6
2022-08-26T10:39:16.302Z,66.11
2022-08-26T10:40:15.069Z,65.27
2022-08-26T10:41:16.918Z,65.24
2022-08-26T10:42:14.588Z,65.56
2022-08-26T10:43:14.594Z,65.27
2022-08-26T10:44:15.358Z,64.98
2022-08-26T10:45:17.501Z,64.88
2022-08-26T10:46:14.807Z,64.98
2022-08-26T10:47:14.598Z,64.4
2022-08-26T10:48:14.739Z,64.4
2022-08-26T10:49:14.388Z,64.98
2022-08-26T10:50:15.018Z,65.37
2022-08-26T10:51:14.348Z,64.98
2022-08-26T10:52:18.965Z,64.88
2022-08-26T10:53:14.351Z,65.08
2022-08-26T10:54:14.606Z,65.37
2022-08-26T10:55:14.357Z,64.11
2022-08-26T10:56:20.952Z,65.17
2022-08-26T10:57:16.607Z,65.72
2022-08-26T10:58:28.433Z,66.4
2022-08-26T10:59:15.111Z,65.92
2022-08-26T11:00:14.384Z,65.69
2022-08-26T11:01:14.504Z,65.69
2022-08-26T11:02:14.368Z,65.5
2022-08-26T11:03:23.957Z,65.75
2022-08-26T11:04:15.297Z,65.95
2022-08-26T11:05:14.373Z,65.47
2022-08-26T11:06:14.726Z,65.66
2022-08-26T11:07:14.384Z,65.75
2022-08-26T11:08:14.378Z,65.56
2022-08-26T11:09:14.378Z,65.66
2022-08-26T11:10:14.637Z,65.47
2022-08-26T11:11:14.639Z,64.69
2022-08-26T11:12:14.639Z,65.27
2022-08-26T11:13:14.384Z,65.85
2022-08-26T11:14:15.341Z,67.89
2022-08-26T11:15:16.005Z,68.37
2022-08-26T11:16:15.124Z,68.18
2022-08-26T11:17:14.396Z,67.99
2022-08-26T11:18:14.391Z,67.5
2022-08-26T11:19:14.396Z,67.6
2022-08-26T11:20:16.077Z,68.28
2022-08-26T11:21:15.196Z,69.34
2022-08-26T11:22:15.326Z,68.76
2022-08-26T11:23:14.658Z,68.82
2022-08-26T11:24:14.940Z,69.31
2022-08-26T11:25:14.658Z,69.21
2022-08-26T11:26:36.075Z,68.92
2022-08-26T11:27:17.926Z,68.63
2022-08-26T11:28:14.662Z,69.5
2022-08-26T11:29:16.258Z,70.86
2022-08-26T11:30:15.613Z,71.64
2022-08-26T11:31:14.832Z,71.06
2022-08-26T11:32:14.451Z,70.09
2022-08-26T11:33:14.418Z,68.89
2022-08-26T11:34:14.744Z,68.89
2022-08-26T11:35:14.672Z,68.89
2022-08-26T11:36:15.021Z,69.37
2022-08-26T11:37:14.788Z,70.44
2022-08-26T11:38:14.954Z,72.67
2022-08-26T11:39:14.423Z,74.32
2022-08-26T11:40:14.915Z,74.32
2022-08-26T11:41:14.704Z,74.22
2022-08-26T11:42:14.687Z,73.05
2022-08-26T11:43:14.682Z,71.99
2022-08-26T11:44:14.685Z,71.99
2022-08-26T11:45:15.165Z,71.8
2022-08-26T11:46:14.572Z,72.67
2022-08-26T11:47:15.402Z,73.21
2022-08-26T11:48:14.692Z,74.08
2022-08-26T11:49:14.435Z,74.76
2022-08-26T11:50:14.559Z,75.15
2022-08-26T11:51:15.846Z,75.15
2022-08-26T11:52:14.695Z,75.15
2022-08-26T11:53:14.438Z,75.34
2022-08-26T11:54:14.707Z,76.21
2022-08-26T11:55:14.695Z,77.05
2022-08-26T11:56:14.440Z,80.01
2022-08-26T11:57:14.695Z,83.26
2022-08-26T11:58:15.153Z,86.41
2022-08-26T11:59:14.703Z,91.58
2022-08-26T12:00:20.457Z,95.98
2022-08-26T12:01:14.707Z,99.99
2022-08-26T12:02:14.447Z,99.99
2022-08-26T12:03:15.141Z,99.99
2022-08-26T12:04:14.703Z,99.99
2022-08-26T12:05:14.698Z,99.99
2022-08-26T12:06:16.641Z,99.99
2022-08-26T12:07:14.597Z,99.99
2022-08-26T12:08:14.448Z,99.99
2022-08-26T12:09:14.700Z,99.99
2022-08-26T12:10:14.451Z,99.99
2022-08-26T12:11:14.697Z,99.99
2022-08-26T12:12:14.700Z,99.99
2022-08-26T12:13:14.817Z,99.99
2022-08-26T12:14:14.720Z,99.99
2022-08-26T12:15:14.695Z,99.99
2022-08-26T12:16:14.761Z,99.99
2022-08-26T12:17:14.699Z,99.99
2022-08-26T12:18:14.695Z,99.99
2022-08-26T12:19:14.438Z,99.99
2022-08-26T12:20:15.465Z,99.99
2022-08-26T12:21:14.732Z,99.99
2022-08-26T12:22:14.532Z,99.99
2022-08-26T12:23:15.882Z,99.99
2022-08-26T12:24:15.825Z,99.99
2022-08-26T12:25:14.694Z,99.99
2022-08-26T12:26:14.428Z,99.99
2022-08-26T12:27:14.858Z,99.99
2022-08-26T12:28:14.628Z,99.99
2022-08-26T12:29:28.590Z,99.99
2022-08-26T12:30:18.084Z,99.99
2022-08-26T12:31:17.470Z,99.99
2022-08-26T12:32:14.423Z,99.99
2022-08-26T12:33:24.794Z,99.99
2022-08-26T12:34:20.240Z,99.99
2022-08-26T12:35:14.677Z,99.99
2022-08-26T12:36:15.017Z,99.99
2022-08-26T12:37:14.435Z,99.99
2022-08-26T12:38:14.952Z,99.99
2022-08-26T12:39:14.412Z,99.99
2022-08-26T12:40:14.576Z,99.99
2022-08-26T12:41:14.413Z,99.99
2022-08-26T12:42:14.662Z,99.99
2022-08-26T12:43:14.662Z,99.99
2022-08-26T12:44:14.657Z,99.99
2022-08-26T12:45:14.662Z,99.99
2022-08-26T12:46:14.504Z,99.99
2022-08-26T12:47:14.660Z,99.99
2022-08-26T12:48:14.398Z,99.99
2022-08-26T12:49:14.656Z,99.99
2022-08-26T12:50:14.646Z,99.99
2022-08-26T12:51:14.396Z,99.99
2022-08-26T12:52:14.393Z,99.99
2022-08-26T12:53:14.396Z,99.99
2022-08-26T12:54:14.390Z,99.99
2022-08-26T12:55:14.644Z,99.99
2022-08-26T12:56:14.645Z,99.99
2022-08-26T12:57:14.644Z,99.99
2022-08-26T12:58:14.646Z,99.99
2022-08-26T12:59:17.114Z,99.99
2022-08-26T13:00:14.383Z,99.99
2022-08-26T13:01:14.647Z,99.99
2022-08-26T13:02:14.918Z,99.99
2022-08-26T13:03:15.413Z,99.99
2022-08-26T13:04:14.632Z,99.99
2022-08-26T13:05:14.632Z,99.99
2022-08-26T13:06:18.341Z,99.99
2022-08-26T13:07:14.632Z,99.99
2022-08-26T13:08:14.376Z,99.99
2022-08-26T13:09:14.630Z,99.99
2022-08-26T13:10:14.626Z,99.99
2022-08-26T13:11:14.633Z,99.99